Time;durP1;ratioP1;P1;durP2;ratioP2;P2;SDS_P1;SDS_P2;PMS_P1;PMS_P2;Temp;Humidity;BMP_temperature;BMP_pressure;BME280_temperature;BME280_humidity;BME280_pressure;Samples;Min_cycle;Max_cycle;Signal;HPM_P1;HPM_P2
2023/08/12 00:00:48;;;;;;;;;;;18.90;99.90;;;;;;5093840;28;19927;-64
2023/08/12 00:03:15;;;;;;;;;;;18.80;99.90;;;;;;5094782;28;19967;-64
2023/08/12 00:05:42;;;;;;;;;;;18.80;99.90;;;;;;5111917;28;19928;-63
2023/08/12 00:08:09;;;;;;;;;;;18.80;99.90;;;;;;5112552;28;19939;-63
2023/08/12 00:10:36;;;;;;;;;;;18.80;99.90;;;;;;5112707;28;19985;-64
2023/08/12 00:13:03;;;;;;;;;;;18.80;99.90;;;;;;5112246;28;20044;-63
2023/08/12 00:15:30;;;;;;;;;;;18.80;99.90;;;;;;5094640;28;19967;-63
2023/08/12 00:17:58;;;;;;;;;;;18.70;99.90;;;;;;5112756;28;19928;-63
2023/08/12 00:20:24;;;;;;;;;;;18.70;99.90;;;;;;5093752;28;19924;-63
2023/08/12 00:22:51;;;;;;;;;;;18.70;99.90;;;;;;5112590;28;19924;-64
2023/08/12 00:25:18;;;;;;;;;;;18.70;99.90;;;;;;5093983;28;19924;-64
2023/08/12 00:27:44;;;;;;;;;;;18.70;99.90;;;;;;5111718;28;19924;-63
2023/08/12 00:30:11;;;;;;;;;;;18.70;99.90;;;;;;5112698;28;19931;-63
2023/08/12 00:32:38;;;;;;;;;;;18.70;99.90;;;;;;5094498;28;19923;-64
2023/08/12 00:35:07;;;;;;;;;;;18.70;99.90;;;;;;5111707;28;19924;-63
2023/08/12 00:37:33;;;;;;;;;;;18.70;99.90;;;;;;5112276;28;20417;-63
2023/08/12 00:40:00;;;;;;;;;;;18.70;99.90;;;;;;5113470;28;19935;-63
2023/08/12 00:42:27;;;;;;;;;;;18.70;99.90;;;;;;5115417;28;19923;-62
2023/08/12 00:44:53;;;;;;;;;;;18.70;99.90;;;;;;5115868;28;20347;-63
2023/08/12 00:47:21;;;;;;;;;;;18.70;99.90;;;;;;5097408;28;20022;-63
2023/08/12 00:49:48;;;;;;;;;;;18.70;99.90;;;;;;5097294;28;19923;-64
2023/08/12 00:52:16;;;;;;;;;;;18.60;99.90;;;;;;5115990;28;19931;-63
2023/08/12 00:54:43;;;;;;;;;;;18.60;99.90;;;;;;5115353;28;20428;-63
2023/08/12 00:57:10;;;;;;;;;;;18.60;99.90;;;;;;5115766;28;19924;-63
2023/08/12 00:59:37;;;;;;;;;;;18.50;99.90;;;;;;5097776;28;19947;-63
2023/08/12 01:02:04;;;;;;;;;;;18.60;99.90;;;;;;5115389;28;19984;-63
2023/08/12 01:04:31;;;;;;;;;;;18.60;99.90;;;;;;5097694;28;19981;-64
2023/08/12 01:06:57;;;;;;;;;;;18.60;99.90;;;;;;5115387;28;19928;-63
2023/08/12 01:09:26;;;;;;;;;;;18.50;99.90;;;;;;5115100;28;19924;-63
2023/08/12 01:11:58;;;;;;;;;;;18.50;99.90;;;;;;5097332;28;19923;-63
2023/08/12 01:14:28;;;;;;;;;;;18.50;99.90;;;;;;5097536;28;19931;-63
2023/08/12 01:17:00;;;;;;;;;;;18.50;99.90;;;;;;5096632;28;20329;-63
2023/08/12 01:19:30;;;;;;;;;;;18.50;99.90;;;;;;5115630;28;19924;-63
2023/08/12 01:22:00;;;;;;;;;;;18.50;99.90;;;;;;5096780;28;19924;-63
2023/08/12 01:24:28;;;;;;;;;;;18.50;99.90;;;;;;5096713;28;19924;-62
2023/08/12 01:26:55;;;;;;;;;;;18.50;99.90;;;;;;5097085;28;19946;-63
2023/08/12 01:29:22;;;;;;;;;;;18.40;99.90;;;;;;5096846;28;19928;-64
2023/08/12 01:31:52;;;;;;;;;;;18.40;99.90;;;;;;5096491;28;19924;-64
2023/08/12 01:34:21;;;;;;;;;;;18.40;99.90;;;;;;5097163;28;19924;-64
2023/08/12 01:36:52;;;;;;;;;;;18.40;99.90;;;;;;5096674;28;19924;-64
2023/08/12 01:39:19;;;;;;;;;;;18.40;99.90;;;;;;5115184;28;19931;-63
2023/08/12 01:41:47;;;;;;;;;;;18.30;99.90;;;;;;5096466;28;19924;-63
2023/08/12 01:44:14;;;;;;;;;;;18.30;99.90;;;;;;5114035;28;20393;-63
2023/08/12 01:46:43;;;;;;;;;;;18.30;99.90;;;;;;5114735;28;20018;-63
2023/08/12 01:49:10;;;;;;;;;;;18.20;99.90;;;;;;5114990;28;19923;-63
2023/08/12 01:51:36;;;;;;;;;;;18.20;99.90;;;;;;5095075;28;19928;-63
2023/08/12 01:54:03;;;;;;;;;;;18.20;99.90;;;;;;5096596;28;19969;-63
2023/08/12 01:56:29;;;;;;;;;;;18.10;99.90;;;;;;5114459;28;19924;-64
2023/08/12 01:58:57;;;;;;;;;;;18.10;99.90;;;;;;5114186;28;19965;-63
2023/08/12 02:01:23;;;;;;;;;;;18.10;99.90;;;;;;5114493;28;19928;-63
2023/08/12 02:03:50;;;;;;;;;;;18.10;99.90;;;;;;5096540;28;19924;-63
2023/08/12 02:06:17;;;;;;;;;;;18.10;99.90;;;;;;5093652;28;19927;-63
2023/08/12 02:08:44;;;;;;;;;;;18.00;99.90;;;;;;5114356;28;19992;-62
2023/08/12 02:11:10;;;;;;;;;;;18.00;99.90;;;;;;5094086;28;19923;-63
2023/08/12 02:13:37;;;;;;;;;;;18.00;99.90;;;;;;5095793;28;19928;-63
2023/08/12 02:16:05;;;;;;;;;;;18.00;99.90;;;;;;5096275;28;19924;-64
2023/08/12 02:18:32;;;;;;;;;;;17.90;99.90;;;;;;5114226;28;20271;-63
2023/08/12 02:20:58;;;;;;;;;;;17.90;99.90;;;;;;5095449;28;19931;-64
2023/08/12 02:23:25;;;;;;;;;;;17.90;99.90;;;;;;5113997;28;19977;-63
2023/08/12 02:25:54;;;;;;;;;;;17.90;99.90;;;;;;5113993;28;19924;-63
2023/08/12 02:28:20;;;;;;;;;;;17.90;99.90;;;;;;5095249;28;19923;-63
2023/08/12 02:30:47;;;;;;;;;;;17.90;99.90;;;;;;5114210;28;20371;-63
2023/08/12 02:33:15;;;;;;;;;;;17.80;99.90;;;;;;5113333;28;19924;-63
2023/08/12 02:35:42;;;;;;;;;;;17.80;99.90;;;;;;5112111;28;19976;-64
2023/08/12 02:38:09;;;;;;;;;;;17.80;99.90;;;;;;5113978;28;20314;-63
2023/08/12 02:40:36;;;;;;;;;;;17.80;99.90;;;;;;5111286;28;19927;-63
2023/08/12 02:43:02;;;;;;;;;;;17.90;99.90;;;;;;5113850;28;19928;-64
2023/08/12 02:45:29;;;;;;;;;;;17.90;99.90;;;;;;5113712;28;19924;-63
2023/08/12 02:47:56;;;;;;;;;;;17.90;99.90;;;;;;5094671;28;19931;-63
2023/08/12 02:50:24;;;;;;;;;;;17.90;99.90;;;;;;5113772;28;19935;-64
2023/08/12 02:52:51;;;;;;;;;;;17.90;99.90;;;;;;5113670;28;19932;-64
2023/08/12 02:55:17;;;;;;;;;;;17.90;99.90;;;;;;5094751;28;19924;-64
2023/08/12 02:57:44;;;;;;;;;;;17.90;99.90;;;;;;5113316;28;19931;-63
2023/08/12 03:00:12;;;;;;;;;;;17.90;99.90;;;;;;5095537;28;19978;-63
2023/08/12 03:02:38;;;;;;;;;;;18.00;99.90;;;;;;5128387;27;19992;-64
2023/08/12 03:05:06;;;;;;;;;;;18.00;99.90;;;;;;5113637;28;19930;-64
2023/08/12 03:07:34;;;;;;;;;;;18.00;99.90;;;;;;5113087;28;19938;-64
2023/08/12 03:10:01;;;;;;;;;;;18.00;99.90;;;;;;5113021;28;20341;-63
2023/08/12 03:12:27;;;;;;;;;;;18.00;99.90;;;;;;5094788;28;20383;-63
2023/08/12 03:14:54;;;;;;;;;;;18.00;99.90;;;;;;5113371;28;19923;-64
2023/08/12 03:17:21;;;;;;;;;;;18.00;99.90;;;;;;5112690;28;19923;-63
2023/08/12 03:19:48;;;;;;;;;;;17.90;99.90;;;;;;5113048;28;19976;-64
2023/08/12 03:22:15;;;;;;;;;;;17.90;99.90;;;;;;5113306;28;20332;-63
2023/08/12 03:24:43;;;;;;;;;;;17.90;99.90;;;;;;5112809;28;19931;-63
2023/08/12 03:27:10;;;;;;;;;;;17.90;99.90;;;;;;5113281;28;19939;-62
2023/08/12 03:29:36;;;;;;;;;;;17.90;99.90;;;;;;5128555;27;19928;-64
2023/08/12 03:32:03;;;;;;;;;;;17.90;99.90;;;;;;5110355;28;19927;-63
2023/08/12 03:34:30;;;;;;;;;;;18.00;99.90;;;;;;5112611;28;20299;-64
2023/08/12 03:36:57;;;;;;;;;;;18.00;99.90;;;;;;5094414;28;19977;-65
2023/08/12 03:39:23;;;;;;;;;;;18.00;99.90;;;;;;5113023;28;20341;-64
2023/08/12 03:41:52;;;;;;;;;;;18.00;99.90;;;;;;5094645;28;19924;-64
2023/08/12 03:44:19;;;;;;;;;;;18.10;99.90;;;;;;5112106;28;19924;-63
2023/08/12 03:46:46;;;;;;;;;;;18.10;99.90;;;;;;5112869;28;20307;-64
2023/08/12 03:49:12;;;;;;;;;;;18.10;99.90;;;;;;5112642;28;19924;-63
2023/08/12 03:51:39;;;;;;;;;;;18.10;99.90;;;;;;5112288;28;19973;-64
2023/08/12 03:54:06;;;;;;;;;;;18.20;99.90;;;;;;5094771;28;19927;-63
2023/08/12 03:56:33;;;;;;;;;;;18.20;99.90;;;;;;5089694;28;19924;-63
2023/08/12 03:59:01;;;;;;;;;;;18.20;99.90;;;;;;5093990;28;19928;-63
2023/08/12 04:01:27;;;;;;;;;;;18.20;99.90;;;;;;5094546;28;19928;-64
2023/08/12 04:03:54;;;;;;;;;;;18.20;99.90;;;;;;5112715;28;19931;-63
2023/08/12 04:06:21;;;;;;;;;;;18.30;99.90;;;;;;5112011;28;19976;-62
2023/08/12 04:08:48;;;;;;;;;;;18.30;99.90;;;;;;5094338;28;19935;-63
2023/08/12 04:11:14;;;;;;;;;;;18.30;99.90;;;;;;5094570;28;19931;-62
2023/08/12 04:13:41;;;;;;;;;;;18.40;99.90;;;;;;5093827;28;20378;-62
2023/08/12 04:16:09;;;;;;;;;;;18.40;99.90;;;;;;5097253;28;19969;-62
2023/08/12 04:18:36;;;;;;;;;;;18.40;99.90;;;;;;5116151;28;19931;-63
2023/08/12 04:21:03;;;;;;;;;;;18.40;99.90;;;;;;5097508;28;19928;-63
2023/08/12 04:23:29;;;;;;;;;;;18.40;99.90;;;;;;5098228;28;19935;-62
2023/08/12 04:25:56;;;;;;;;;;;18.50;99.90;;;;;;5115820;28;19924;-62
2023/08/12 04:28:23;;;;;;;;;;;18.40;99.90;;;;;;5116034;28;19977;-62
2023/08/12 04:30:50;;;;;;;;;;;18.50;99.90;;;;;;5097906;28;19927;-62
2023/08/12 04:33:19;;;;;;;;;;;18.50;99.90;;;;;;5097442;28;20440;-63
2023/08/12 04:35:46;;;;;;;;;;;18.50;99.90;;;;;;5098323;28;19928;-63
2023/08/12 04:38:13;;;;;;;;;;;18.50;99.90;;;;;;5098065;28;20006;-62
2023/08/12 04:40:40;;;;;;;;;;;18.50;99.90;;;;;;5115683;28;19924;-62
2023/08/12 04:43:08;;;;;;;;;;;18.60;99.90;;;;;;5115777;28;20331;-62
2023/08/12 04:45:35;;;;;;;;;;;18.60;99.90;;;;;;5097832;28;19923;-63
2023/08/12 04:48:02;;;;;;;;;;;18.60;99.90;;;;;;5115372;28;19976;-61
2023/08/12 04:50:31;;;;;;;;;;;18.60;99.90;;;;;;5116015;28;19930;-62
2023/08/12 04:52:58;;;;;;;;;;;18.60;99.90;;;;;;5097870;28;20058;-63
2023/08/12 04:55:26;;;;;;;;;;;18.60;99.90;;;;;;5115280;28;19924;-62
2023/08/12 04:57:53;;;;;;;;;;;18.70;99.90;;;;;;5115681;28;19923;-63
2023/08/12 05:00:21;;;;;;;;;;;18.70;99.90;;;;;;5097642;28;19923;-64
2023/08/12 05:02:47;;;;;;;;;;;18.70;99.90;;;;;;5096828;28;19973;-64
2023/08/12 05:05:14;;;;;;;;;;;18.70;99.90;;;;;;5097322;28;20391;-63
2023/08/12 05:07:44;;;;;;;;;;;18.70;99.90;;;;;;5097556;28;20373;-63
2023/08/12 05:10:10;;;;;;;;;;;18.80;99.90;;;;;;5115093;28;19924;-63
2023/08/12 05:12:37;;;;;;;;;;;18.80;99.90;;;;;;5095317;28;19928;-63
2023/08/12 05:15:04;;;;;;;;;;;18.90;99.90;;;;;;5114857;28;19928;-63
2023/08/12 05:17:31;;;;;;;;;;;18.80;99.90;;;;;;5115686;28;19924;-63
2023/08/12 05:19:57;;;;;;;;;;;18.90;99.90;;;;;;5115534;28;19924;-64
2023/08/12 05:22:24;;;;;;;;;;;19.00;99.90;;;;;;5096158;28;19977;-64
2023/08/12 05:24:52;;;;;;;;;;;19.10;99.90;;;;;;5097127;28;19924;-64
2023/08/12 05:27:19;;;;;;;;;;;19.10;99.90;;;;;;5113226;28;19931;-62
2023/08/12 05:29:46;;;;;;;;;;;19.30;99.90;;;;;;5114676;28;19924;-62
2023/08/12 05:32:12;;;;;;;;;;;19.40;99.90;;;;;;5113100;28;19924;-63
2023/08/12 05:34:39;;;;;;;;;;;19.50;99.90;;;;;;5115288;28;19924;-62
2023/08/12 05:37:06;;;;;;;;;;;19.60;99.90;;;;;;5112227;28;19924;-63
2023/08/12 05:39:32;;;;;;;;;;;19.70;99.90;;;;;;5114939;28;19938;-62
2023/08/12 05:42:00;;;;;;;;;;;19.80;99.90;;;;;;5114824;28;19923;-62
2023/08/12 05:44:27;;;;;;;;;;;19.90;99.90;;;;;;5092539;28;19924;-63
2023/08/12 05:46:54;;;;;;;;;;;20.00;99.90;;;;;;5094497;28;19982;-62
2023/08/12 05:49:20;;;;;;;;;;;20.00;99.90;;;;;;5094177;28;20379;-63
2023/08/12 05:51:47;;;;;;;;;;;20.00;99.90;;;;;;5089771;28;20441;-64
2023/08/12 05:54:14;;;;;;;;;;;20.00;99.90;;;;;;5083074;28;20316;-64
2023/08/12 05:56:40;;;;;;;;;;;20.10;99.90;;;;;;5088016;28;19928;-64
2023/08/12 05:59:08;;;;;;;;;;;20.10;99.90;;;;;;5092982;28;19938;-63
2023/08/12 06:01:35;;;;;;;;;;;20.20;99.90;;;;;;5087914;28;19931;-63
2023/08/12 06:04:02;;;;;;;;;;;20.20;99.90;;;;;;5088893;28;20382;-64
2023/08/12 06:06:29;;;;;;;;;;;20.30;99.90;;;;;;5087439;28;19977;-63
2023/08/12 06:08:55;;;;;;;;;;;20.40;99.90;;;;;;5093111;28;19931;-64
2023/08/12 06:11:22;;;;;;;;;;;20.50;99.90;;;;;;5091178;28;19954;-64
2023/08/12 06:13:49;;;;;;;;;;;20.50;99.90;;;;;;5091566;28;19932;-63
2023/08/12 06:16:17;;;;;;;;;;;20.50;99.90;;;;;;5088925;28;19932;-65
2023/08/12 06:18:43;;;;;;;;;;;20.60;99.90;;;;;;5091252;28;20277;-65
2023/08/12 06:21:10;;;;;;;;;;;20.60;99.90;;;;;;5090061;28;19932;-65
2023/08/12 06:23:37;;;;;;;;;;;20.60;99.90;;;;;;5091261;28;19924;-64
2023/08/12 06:26:03;;;;;;;;;;;20.70;99.90;;;;;;5088942;28;19924;-63
2023/08/12 06:28:30;;;;;;;;;;;20.60;99.90;;;;;;5091176;28;19924;-64
2023/08/12 06:30:57;;;;;;;;;;;20.60;99.90;;;;;;5091310;28;19924;-63
2023/08/12 06:33:25;;;;;;;;;;;20.70;99.90;;;;;;5090697;28;19935;-63
2023/08/12 06:35:52;;;;;;;;;;;20.70;99.90;;;;;;5090911;28;19935;-63
2023/08/12 06:38:18;;;;;;;;;;;20.70;99.90;;;;;;5091128;28;19924;-64
2023/08/12 06:40:46;;;;;;;;;;;20.70;99.90;;;;;;5088979;28;19925;-63
2023/08/12 06:43:13;;;;;;;;;;;20.70;99.90;;;;;;5089389;28;19959;-64
2023/08/12 06:45:39;;;;;;;;;;;20.70;99.90;;;;;;5090889;28;19932;-64
2023/08/12 06:48:06;;;;;;;;;;;20.70;99.90;;;;;;5088583;28;19924;-64
2023/08/12 06:50:34;;;;;;;;;;;20.70;99.90;;;;;;5092004;28;20402;-64
2023/08/12 06:53:01;;;;;;;;;;;20.70;99.90;;;;;;5090480;28;19977;-64
2023/08/12 06:55:28;;;;;;;;;;;20.70;99.90;;;;;;5089792;28;20011;-64
2023/08/12 06:57:55;;;;;;;;;;;20.70;99.90;;;;;;5090325;28;20409;-64
2023/08/12 07:00:22;;;;;;;;;;;20.70;99.90;;;;;;5092229;28;19924;-64
2023/08/12 07:02:48;;;;;;;;;;;20.70;99.90;;;;;;5089352;28;19978;-64
2023/08/12 07:05:15;;;;;;;;;;;20.70;99.90;;;;;;5118564;27;19939;-63
2023/08/12 07:07:43;;;;;;;;;;;20.70;99.90;;;;;;5085072;28;20046;-63
2023/08/12 07:10:11;;;;;;;;;;;20.80;99.90;;;;;;5090793;28;19931;-63
2023/08/12 07:12:37;;;;;;;;;;;20.80;99.90;;;;;;5089743;28;19925;-63
2023/08/12 07:15:04;;;;;;;;;;;20.80;99.90;;;;;;5089620;28;19935;-63
2023/08/12 07:17:31;;;;;;;;;;;20.90;99.90;;;;;;5088641;28;20263;-64
2023/08/12 07:19:58;;;;;;;;;;;20.80;99.90;;;;;;5089309;28;19966;-64
2023/08/12 07:22:25;;;;;;;;;;;20.90;99.90;;;;;;5088584;28;19928;-64
2023/08/12 07:24:54;;;;;;;;;;;20.90;99.90;;;;;;5089235;28;19931;-64
2023/08/12 07:27:20;;;;;;;;;;;20.90;99.90;;;;;;5090779;28;20449;-64
2023/08/12 07:29:47;;;;;;;;;;;20.90;99.90;;;;;;5087449;28;19928;-64
2023/08/12 07:32:14;;;;;;;;;;;21.00;99.90;;;;;;5086125;28;19924;-64
2023/08/12 07:34:41;;;;;;;;;;;21.00;99.90;;;;;;5087814;28;20388;-63
2023/08/12 07:37:07;;;;;;;;;;;21.00;99.90;;;;;;5090314;28;19939;-64
2023/08/12 07:39:34;;;;;;;;;;;21.00;99.90;;;;;;5087393;28;20175;-62
2023/08/12 07:42:03;;;;;;;;;;;21.10;99.90;;;;;;5090927;28;20036;-64
2023/08/12 07:44:29;;;;;;;;;;;21.10;99.90;;;;;;5092570;28;19924;-64
2023/08/12 07:46:56;;;;;;;;;;;21.10;99.90;;;;;;5108267;28;19935;-63
2023/08/12 07:49:23;;;;;;;;;;;21.10;99.90;;;;;;5123368;27;20297;-64
2023/08/12 07:51:50;;;;;;;;;;;21.10;99.90;;;;;;5113286;28;19981;-64
2023/08/12 07:54:16;;;;;;;;;;;21.00;99.90;;;;;;5095894;28;19932;-64
2023/08/12 07:56:43;;;;;;;;;;;21.00;99.90;;;;;;5095408;28;20303;-64
2023/08/12 07:59:11;;;;;;;;;;;21.10;99.90;;;;;;5111615;28;19924;-64
2023/08/12 08:01:38;;;;;;;;;;;21.10;99.90;;;;;;5097073;28;19931;-64
2023/08/12 08:04:05;;;;;;;;;;;21.10;99.90;;;;;;5094344;28;19946;-64
2023/08/12 08:06:31;;;;;;;;;;;21.10;99.90;;;;;;5115068;28;19923;-64
2023/08/12 08:09:00;;;;;;;;;;;21.10;99.90;;;;;;5127760;27;20006;-64
2023/08/12 08:11:27;;;;;;;;;;;21.10;99.90;;;;;;5113187;28;22109;-65
2023/08/12 08:13:54;;;;;;;;;;;21.10;99.90;;;;;;5096339;28;19924;-64
2023/08/12 08:16:22;;;;;;;;;;;21.10;99.90;;;;;;5112562;28;19924;-64
2023/08/12 08:18:48;;;;;;;;;;;21.10;99.90;;;;;;5126651;27;19924;-73
2023/08/12 08:21:15;;;;;;;;;;;21.10;99.90;;;;;;5095378;28;19951;-66
2023/08/12 08:23:42;;;;;;;;;;;21.10;99.90;;;;;;5115140;28;19930;-73
2023/08/12 08:26:09;;;;;;;;;;;21.20;99.90;;;;;;5126225;27;19924;-64
2023/08/12 08:28:36;;;;;;;;;;;21.20;99.90;;;;;;5115671;28;19923;-65
2023/08/12 08:31:03;;;;;;;;;;;21.30;99.90;;;;;;5113091;28;20314;-65
2023/08/12 08:33:31;;;;;;;;;;;21.30;99.90;;;;;;5114903;28;19923;-66
2023/08/12 08:35:58;;;;;;;;;;;21.30;99.90;;;;;;5111021;28;19924;-64
2023/08/12 08:38:24;;;;;;;;;;;21.30;99.90;;;;;;5097647;28;20074;-65
2023/08/12 08:40:51;;;;;;;;;;;21.30;99.90;;;;;;5112580;28;19931;-66
2023/08/12 08:43:20;;;;;;;;;;;21.30;99.90;;;;;;5115384;28;20015;-66
2023/08/12 08:45:47;;;;;;;;;;;21.30;99.90;;;;;;5094074;28;19934;-69
2023/08/12 08:48:14;;;;;;;;;;;21.20;99.90;;;;;;5094763;28;20458;-66
2023/08/12 08:50:42;;;;;;;;;;;21.20;99.90;;;;;;5112302;28;19924;-65
2023/08/12 08:53:09;;;;;;;;;;;21.10;99.90;;;;;;5112681;28;19923;-65
2023/08/12 08:55:36;;;;;;;;;;;21.10;99.90;;;;;;5113335;28;19923;-64
2023/08/12 08:58:04;;;;;;;;;;;21.10;99.90;;;;;;5093144;28;19941;-66
2023/08/12 09:00:30;;;;;;;;;;;21.00;99.90;;;;;;5110839;28;19931;-65
2023/08/12 09:02:58;;;;;;;;;;;20.90;99.90;;;;;;5093336;28;19977;-65
2023/08/12 09:05:26;;;;;;;;;;;20.90;99.90;;;;;;5095225;28;20405;-65
2023/08/12 09:07:55;;;;;;;;;;;20.80;99.90;;;;;;5110608;28;19924;-64
2023/08/12 09:10:22;;;;;;;;;;;20.70;99.90;;;;;;5112726;28;19924;-64
2023/08/12 09:12:49;;;;;;;;;;;20.60;99.90;;;;;;5091716;28;19924;-64
2023/08/12 09:15:17;;;;;;;;;;;20.60;99.90;;;;;;5093156;28;19985;-64
2023/08/12 09:17:43;;;;;;;;;;;20.50;99.90;;;;;;5093950;28;19932;-64
2023/08/12 09:20:12;;;;;;;;;;;20.50;99.90;;;;;;5112937;28;19924;-64
2023/08/12 09:22:38;;;;;;;;;;;20.50;99.90;;;;;;5111574;28;19924;-64
2023/08/12 09:25:08;;;;;;;;;;;20.50;99.90;;;;;;5113167;28;19928;-65
2023/08/12 09:27:36;;;;;;;;;;;20.60;99.90;;;;;;5093319;28;20269;-64
2023/08/12 09:30:03;;;;;;;;;;;20.60;99.90;;;;;;5109358;28;19928;-65
2023/08/12 09:32:30;;;;;;;;;;;20.70;99.90;;;;;;5094877;28;19924;-64
2023/08/12 09:34:57;;;;;;;;;;;20.70;99.90;;;;;;5095522;28;19931;-64
2023/08/12 09:37:25;;;;;;;;;;;20.70;99.90;;;;;;5113557;28;19932;-64
2023/08/12 09:39:52;;;;;;;;;;;20.80;99.90;;;;;;5096160;28;19928;-64
2023/08/12 09:42:20;;;;;;;;;;;20.80;99.90;;;;;;5113876;28;19924;-64
2023/08/12 09:44:47;;;;;;;;;;;20.80;99.90;;;;;;5049330;28;1809980;-64
2023/08/12 09:47:14;;;;;;;;;;;20.80;99.90;;;;;;5094442;28;20414;-64
2023/08/12 09:49:41;;;;;;;;;;;20.80;99.90;;;;;;5096337;28;19923;-65
2023/08/12 09:52:08;;;;;;;;;;;20.90;99.90;;;;;;5094250;28;19984;-65
2023/08/12 09:54:35;;;;;;;;;;;20.90;99.90;;;;;;5096521;28;19923;-64
2023/08/12 09:57:02;;;;;;;;;;;21.00;99.90;;;;;;5096036;28;19927;-65
2023/08/12 09:59:32;;;;;;;;;;;21.00;99.90;;;;;;5114615;28;19985;-64
2023/08/12 10:01:59;;;;;;;;;;;21.00;99.90;;;;;;5114466;28;19927;-64
2023/08/12 10:04:28;;;;;;;;;;;21.00;99.90;;;;;;5095882;28;20026;-64
2023/08/12 10:06:55;;;;;;;;;;;21.10;99.90;;;;;;5114417;28;19977;-65
2023/08/12 10:09:22;;;;;;;;;;;21.00;99.90;;;;;;5096451;28;19969;-64
2023/08/12 10:11:50;;;;;;;;;;;21.10;99.90;;;;;;5113626;28;19931;-63
2023/08/12 10:14:17;;;;;;;;;;;21.10;99.90;;;;;;5113667;28;19977;-64
2023/08/12 10:16:46;;;;;;;;;;;21.10;99.90;;;;;;5093837;28;19923;-64
2023/08/12 10:19:13;;;;;;;;;;;21.00;99.90;;;;;;5113732;28;19932;-64
2023/08/12 10:21:40;;;;;;;;;;;21.00;99.90;;;;;;5096271;28;20427;-64
2023/08/12 10:24:07;;;;;;;;;;;20.90;99.90;;;;;;5095906;28;19924;-64
2023/08/12 10:26:34;;;;;;;;;;;20.90;99.90;;;;;;5113680;28;19923;-65
2023/08/12 10:29:01;;;;;;;;;;;20.90;99.90;;;;;;5113903;28;19924;-64
2023/08/12 10:31:28;;;;;;;;;;;20.90;99.90;;;;;;5095955;28;19984;-64
2023/08/12 10:33:57;;;;;;;;;;;20.80;99.90;;;;;;5114212;28;19977;-64
2023/08/12 10:36:24;;;;;;;;;;;20.90;99.90;;;;;;5114098;28;19931;-64
2023/08/12 10:38:51;;;;;;;;;;;20.90;99.90;;;;;;5111112;28;19923;-64
2023/08/12 10:41:19;;;;;;;;;;;20.90;99.90;;;;;;5113798;28;20428;-63
2023/08/12 10:43:55;;;;;;;;;;;20.90;99.90;;;;;;5095429;28;19930;-64
2023/08/12 10:46:23;;;;;;;;;;;20.80;99.90;;;;;;5112645;28;20297;-63
2023/08/12 10:48:59;;;;;;;;;;;20.90;99.90;;;;;;5111111;28;20428;-64
2023/08/12 10:51:40;;;;;;;;;;;20.60;99.90;;;;;;5095203;28;20010;-65
2023/08/12 10:54:21;;;;;;;;;;;20.40;99.90;;;;;;5111222;28;19947;-64
2023/08/12 10:57:08;;;;;;;;;;;20.40;99.90;;;;;;5102505;28;20379;-64
2023/08/12 10:59:54;;;;;;;;;;;20.20;99.90;;;;;;5089504;28;19932;-64
2023/08/12 11:02:22;;;;;;;;;;;20.20;99.90;;;;;;5093660;28;19988;-65
2023/08/12 11:04:52;;;;;;;;;;;20.20;99.90;;;;;;5093460;28;20314;-65
2023/08/12 11:07:20;;;;;;;;;;;20.20;99.90;;;;;;5091109;28;19969;-65
2023/08/12 11:09:52;;;;;;;;;;;20.30;99.90;;;;;;5094151;28;19924;-65
2023/08/12 11:12:19;;;;;;;;;;;20.40;99.90;;;;;;5092074;28;19970;-64
2023/08/12 11:14:49;;;;;;;;;;;20.50;99.90;;;;;;5109613;28;19931;-64
2023/08/12 11:17:16;;;;;;;;;;;20.60;99.90;;;;;;5112191;28;19923;-65
2023/08/12 11:19:43;;;;;;;;;;;20.60;99.90;;;;;;5109534;28;19924;-64
2023/08/12 11:22:12;;;;;;;;;;;20.70;99.90;;;;;;5111860;28;19946;-64
2023/08/12 11:24:41;;;;;;;;;;;20.70;99.90;;;;;;5107439;28;19923;-64
2023/08/12 11:27:09;;;;;;;;;;;20.80;99.90;;;;;;5111981;28;20362;-64
2023/08/12 11:29:36;;;;;;;;;;;21.60;99.90;;;;;;5107737;28;20302;-64
2023/08/12 11:32:03;;;;;;;;;;;21.10;99.90;;;;;;5106546;28;19924;-66
2023/08/12 11:34:30;;;;;;;;;;;21.30;99.90;;;;;;5111564;28;19938;-66
2023/08/12 11:36:58;;;;;;;;;;;21.50;99.90;;;;;;5108840;28;20387;-64
2023/08/12 11:39:26;;;;;;;;;;;21.50;99.90;;;;;;5092892;28;20245;-65
2023/08/12 11:41:53;;;;;;;;;;;21.50;99.90;;;;;;5091047;28;20296;-65
2023/08/12 11:44:22;;;;;;;;;;;21.40;99.90;;;;;;5108345;28;20341;-65
2023/08/12 11:46:49;;;;;;;;;;;21.30;99.90;;;;;;5088524;28;20004;-64
2023/08/12 11:49:15;;;;;;;;;;;21.20;99.90;;;;;;5091211;28;19942;-64
2023/08/12 11:51:43;;;;;;;;;;;21.00;99.90;;;;;;5107909;28;19931;-64
2023/08/12 11:54:10;;;;;;;;;;;20.60;99.90;;;;;;5110660;28;19924;-63
2023/08/12 11:56:38;;;;;;;;;;;20.10;99.90;;;;;;5090903;28;19935;-64
2023/08/12 11:59:05;;;;;;;;;;;19.90;99.90;;;;;;5110133;28;19923;-64
2023/08/12 12:01:32;;;;;;;;;;;19.60;99.90;;;;;;5093565;28;20038;-66
2023/08/12 12:04:00;;;;;;;;;;;19.30;99.90;;;;;;5090776;28;20306;-65
2023/08/12 12:06:31;;;;;;;;;;;19.10;99.90;;;;;;5092488;28;19928;-65
2023/08/12 12:09:00;;;;;;;;;;;18.90;99.90;;;;;;5111139;28;19977;-65
2023/08/12 12:11:27;;;;;;;;;;;18.90;99.90;;;;;;5092065;28;19931;-65
2023/08/12 12:13:55;;;;;;;;;;;18.90;99.90;;;;;;5093001;28;19924;-65
2023/08/12 12:16:22;;;;;;;;;;;19.10;99.90;;;;;;5111725;28;20333;-65
2023/08/12 12:18:48;;;;;;;;;;;19.30;99.90;;;;;;5109590;28;19980;-65
2023/08/12 12:21:21;;;;;;;;;;;19.40;99.90;;;;;;5111018;28;19923;-65
2023/08/12 12:23:47;;;;;;;;;;;19.50;99.90;;;;;;5108647;28;19924;-70
2023/08/12 12:26:14;;;;;;;;;;;19.50;99.90;;;;;;5092859;28;19925;-66
2023/08/12 12:28:41;;;;;;;;;;;19.50;99.90;;;;;;5092782;28;19924;-67
2023/08/12 12:31:09;;;;;;;;;;;19.40;99.90;;;;;;5111334;28;19927;-67
2023/08/12 12:33:36;;;;;;;;;;;19.40;99.90;;;;;;5107238;28;19931;-67
2023/08/12 12:36:03;;;;;;;;;;;19.70;99.90;;;;;;5091330;28;19924;-68
2023/08/12 12:38:29;;;;;;;;;;;20.10;99.90;;;;;;5092970;28;19924;-67
2023/08/12 12:40:56;;;;;;;;;;;20.60;99.90;;;;;;5095878;28;19927;-67
2023/08/12 12:43:23;;;;;;;;;;;21.10;99.90;;;;;;5112619;28;19931;-68
2023/08/12 12:45:49;;;;;;;;;;;21.50;99.90;;;;;;5094575;28;19924;-68
2023/08/12 12:48:17;;;;;;;;;;;21.50;99.90;;;;;;5111006;28;19927;-67
2023/08/12 12:50:44;;;;;;;;;;;21.60;99.90;;;;;;5109389;28;19924;-68
2023/08/12 12:53:11;;;;;;;;;;;21.50;99.90;;;;;;5110487;28;19977;-67
2023/08/12 12:55:37;;;;;;;;;;;21.40;99.90;;;;;;5112325;28;19939;-68
2023/08/12 12:58:04;;;;;;;;;;;21.40;99.90;;;;;;5113075;28;20301;-68
2023/08/12 13:00:31;;;;;;;;;;;21.50;99.90;;;;;;5089529;28;19931;-67
2023/08/12 13:02:58;;;;;;;;;;;22.10;99.90;;;;;;5089258;28;19931;-67
2023/08/12 13:05:26;;;;;;;;;;;22.90;99.90;;;;;;5111420;28;19931;-67
2023/08/12 13:07:53;;;;;;;;;;;23.10;99.90;;;;;;5112672;28;19924;-68
2023/08/12 13:10:20;;;;;;;;;;;23.50;99.90;;;;;;5112423;28;19932;-67
2023/08/12 13:12:46;;;;;;;;;;;24.40;99.90;;;;;;5113977;28;19967;-67
2023/08/12 13:15:17;;;;;;;;;;;25.10;99.90;;;;;;5109333;28;20319;-67
2023/08/12 13:17:44;;;;;;;;;;;24.90;99.90;;;;;;5109839;28;19923;-66
2023/08/12 13:20:11;;;;;;;;;;;25.30;99.90;;;;;;5112608;28;20029;-67
2023/08/12 13:22:42;;;;;;;;;;;25.80;99.90;;;;;;5113206;28;20340;-66
2023/08/12 13:25:09;;;;;;;;;;;26.10;99.90;;;;;;5094272;28;19927;-66
2023/08/12 13:27:36;;;;;;;;;;;26.10;99.90;;;;;;5096053;28;20492;-66
2023/08/12 13:30:04;;;;;;;;;;;26.60;99.90;;;;;;5111470;28;19928;-65
2023/08/12 13:32:30;;;;;;;;;;;26.90;99.90;;;;;;5096041;28;19934;-66
2023/08/12 13:34:57;;;;;;;;;;;27.20;99.90;;;;;;5111220;28;19934;-66
2023/08/12 13:37:24;;;;;;;;;;;27.70;99.90;;;;;;5095827;28;19924;-67
2023/08/12 13:39:52;;;;;;;;;;;27.30;99.90;;;;;;5094598;28;20401;-67
2023/08/12 13:42:19;;;;;;;;;;;27.50;99.90;;;;;;5094698;28;20280;-67
2023/08/12 13:44:46;;;;;;;;;;;28.00;99.90;;;;;;5110379;28;19924;-67
2023/08/12 13:47:12;;;;;;;;;;;28.20;99.90;;;;;;5093903;28;20018;-67
2023/08/12 13:49:39;;;;;;;;;;;28.60;99.90;;;;;;5094025;28;19928;-68
2023/08/12 13:52:06;;;;;;;;;;;28.60;99.90;;;;;;5094559;28;20268;-67
2023/08/12 13:54:32;;;;;;;;;;;28.50;99.90;;;;;;5112268;28;19927;-68
2023/08/12 13:57:01;;;;;;;;;;;27.80;99.90;;;;;;5111047;28;19977;-67
2023/08/12 13:59:28;;;;;;;;;;;27.80;99.90;;;;;;5110257;28;20395;-68
2023/08/12 14:01:55;;;;;;;;;;;27.70;99.90;;;;;;5093733;28;20364;-68
2023/08/12 14:04:22;;;;;;;;;;;27.40;99.90;;;;;;5111922;28;19928;-67
2023/08/12 14:06:48;;;;;;;;;;;26.80;99.90;;;;;;5093401;28;20371;-68
2023/08/12 14:09:17;;;;;;;;;;;26.60;99.90;;;;;;5095307;28;19924;-68
2023/08/12 14:11:44;;;;;;;;;;;26.90;99.90;;;;;;5110376;28;20405;-67
2023/08/12 14:14:12;;;;;;;;;;;27.30;99.90;;;;;;5113856;28;19928;-67
2023/08/12 14:16:38;;;;;;;;;;;27.40;99.90;;;;;;5106379;27;19927;-66